Airfield :
LOGIN :

Register | Disclaimer

   EN    FR    IT 

 










Legend :    VFR   Marginal VFR   IFR   Intensive IFR   Very Intensive IFR
Visi :
Ceiling :
>= 8 km
>= 3000ft
5 to 8 km
1000 to 3000 ft
1500m to 5 km
500 to 1000 ft
800 to 1500m
200 to 500 ft
< 800m
< 200 ft
Symbols :   Thunderstorms  Fog  Heavy snow  Heavy precipitations  Wind > 20 kt
SIGMETs :     Misc.  Thunderstorms  Icing  Turbulence  Mountain Waves  Volcanic Ashes






- Airport Elevation : 2653 ft
- IATA code : ANK


LTAD - Etimesgut Air Base

CURRENT METAR :
  • 190421Z 24005KT 200V280 9999 SCT035 BKN090 17/13 Q1019 RESHRA NOSIG RMK RWY29 24007KT 200V270

EXPIRED METARs :
  • 190302Z 35010KT 9999 -SHRA SCT035 BKN090 17/12 Q1019 NOSIG RMK RWY29 35009KT 310V030

TAF AMD TAF LTAD
Valid from the 19 at 03:00 until the 19 at 12:00 UTC


190309Z 1903/1912 03008KT 9999 SCT040 SCT100
TEMPO 1903/1905 -SHRA



MET'MAP, your aeronautical weather chart ! - Copyright ORBIFLY December 2007 - Disclaimer

ORBIFLY MET'MAP TEAM :

Programming & Development : Alexandra Zaïnal
Concept & original design : Baudouin d'Aumeries
Assistance for programming : Marc-Olivier Méhu
Technical & hardware support : Manuel Goepfert

Contact : metmap@orbifly.com




SOURCES & CREDITS :

   NOAA